Time;durP1;ratioP1;P1;durP2;ratioP2;P2;SDS_P1;SDS_P2;PMS_P1;PMS_P2;Temp;Humidity;BMP_temperature;BMP_pressure;BME280_temperature;BME280_humidity;BME280_pressure;Samples;Min_cycle;Max_cycle;Signal;HPM_P1;HPM_P2
2022/05/27 00:01:26;;;;;;;5.07;1.90;;;15.00;99.90;;;-146.41;100.00;57768.22;5018911;28;20160;-68
2022/05/27 00:03:56;;;;;;;3.08;1.27;;;15.00;99.90;;;-146.41;100.00;57768.22;5018062;28;20140;-67
2022/05/27 00:06:23;;;;;;;4.80;1.67;;;15.00;99.90;;;-146.41;100.00;57768.22;5019926;28;20092;-67
2022/05/27 00:08:50;;;;;;;4.55;1.65;;;14.90;99.90;;;-146.41;100.00;57768.22;5015682;28;20045;-66
2022/05/27 00:11:17;;;;;;;5.25;1.50;;;14.90;99.90;;;-146.41;100.00;57768.22;5016597;28;20077;-68
2022/05/27 00:13:45;;;;;;;5.18;1.50;;;14.90;99.90;;;-146.41;100.00;57768.22;5017700;28;20471;-67
2022/05/27 00:16:12;;;;;;;5.18;1.60;;;14.90;99.90;;;-146.41;100.00;57768.22;5018471;28;20085;-67
2022/05/27 00:18:39;;;;;;;5.03;1.58;;;14.90;99.90;;;-146.41;100.00;57768.22;5016503;28;20404;-67
2022/05/27 00:21:06;;;;;;;5.03;1.30;;;14.90;99.90;;;-146.41;100.00;57768.22;5016551;28;20277;-66
2022/05/27 00:23:34;;;;;;;4.82;2.00;;;14.90;99.90;;;-146.41;100.00;57768.22;5018709;28;20559;-68
2022/05/27 00:26:01;;;;;;;16.60;1.90;;;14.80;99.90;;;-146.41;100.00;57768.22;5017770;28;20069;-67
2022/05/27 00:28:28;;;;;;;7.75;1.63;;;14.80;99.90;;;-146.41;100.00;57768.22;5014711;28;20046;-69
2022/05/27 00:30:56;;;;;;;7.07;2.22;;;14.80;99.90;;;-146.41;100.00;57768.22;5018495;28;20049;-68
2022/05/27 00:33:23;;;;;;;5.28;2.35;;;14.80;99.90;;;-146.41;100.00;57768.22;5017557;28;20073;-68
2022/05/27 00:35:51;;;;;;;6.53;2.28;;;14.70;99.90;;;-146.41;100.00;57768.22;5015630;28;20137;-68
2022/05/27 00:38:18;;;;;;;6.47;2.05;;;14.80;99.90;;;-146.41;100.00;57768.22;5016451;28;20124;-68
2022/05/27 00:40:52;;;;;;;4.00;2.00;;;14.80;99.90;;;-146.41;100.00;57768.22;5011781;28;20132;-69
2022/05/27 00:43:20;;;;;;;6.05;2.40;;;14.70;99.90;;;-146.41;100.00;57768.22;5017969;28;20048;-68
2022/05/27 00:45:59;;;;;;;6.03;2.40;;;14.60;99.90;;;-146.41;100.00;57768.22;5020117;28;20057;-69
2022/05/27 00:48:27;;;;;;;8.85;3.13;;;14.60;99.90;;;-146.41;100.00;57768.22;5018979;28;20045;-69
2022/05/27 00:50:55;;;;;;;5.93;2.72;;;14.50;99.90;;;-146.41;100.00;57768.22;5020970;28;20140;-69
2022/05/27 00:53:36;;;;;;;6.50;2.45;;;14.50;99.90;;;-146.41;100.00;57768.22;5018458;28;20861;-68
2022/05/27 00:56:05;;;;;;;7.88;3.08;;;14.40;99.90;;;-146.41;100.00;57768.22;5013890;28;20061;-69
2022/05/27 00:58:47;;;;;;;7.03;2.95;;;14.40;99.90;;;-146.41;100.00;57768.22;5020129;28;20053;-68
2022/05/27 01:01:15;;;;;;;6.43;2.97;;;14.50;99.90;;;-146.41;100.00;57768.22;4999848;28;20144;-68
2022/05/27 01:03:43;;;;;;;6.63;2.90;;;14.50;99.90;;;-146.41;100.00;57768.22;5018017;28;20061;-68
2022/05/27 01:06:10;;;;;;;8.45;2.85;;;14.40;99.90;;;-146.41;100.00;57768.22;5016251;28;20049;-68
2022/05/27 01:08:37;;;;;;;8.07;2.80;;;14.40;99.90;;;-146.41;100.00;57768.22;5022608;28;20715;-68
2022/05/27 01:11:16;;;;;;;5.95;2.92;;;14.30;99.90;;;-146.41;100.00;57768.22;5018488;28;20442;-68
2022/05/27 01:14:19;;;;;;;9.27;3.30;;;14.20;99.90;;;-146.41;100.00;57768.22;5022035;28;20120;-68
2022/05/27 01:17:10;;;;;;;8.18;3.15;;;14.20;99.90;;;-146.41;100.00;57768.22;5022593;28;20132;-68
2022/05/27 01:23:07;;;;;;;6.47;3.97;;;14.10;99.90;;;-146.41;100.00;57768.22;5021010;28;20073;-69
2022/05/27 01:25:58;;;;;;;11.07;4.32;;;14.00;99.90;;;-146.41;100.00;57768.22;5019188;28;20561;-68
2022/05/27 01:28:41;;;;;;;8.23;4.60;;;14.00;99.90;;;-146.41;100.00;57768.22;5014746;28;20070;-69
2022/05/27 01:31:23;;;;;;;8.97;4.40;;;14.00;99.90;;;-146.41;100.00;57768.22;5019036;28;20164;-69
2022/05/27 01:34:06;;;;;;;10.77;5.05;;;13.90;99.90;;;-146.41;100.00;57768.22;5019113;28;20045;-68
2022/05/27 01:37:15;;;;;;;7.93;4.60;;;13.90;99.90;;;-146.41;100.00;57768.22;5019788;28;20467;-68
2022/05/27 01:40:22;;;;;;;8.25;5.05;;;13.80;99.90;;;-146.41;100.00;57768.22;5019344;28;20081;-69
2022/05/27 01:43:10;;;;;;;10.20;5.78;;;13.80;99.90;;;-146.41;100.00;57768.22;5013422;28;20133;-67
2022/05/27 01:46:03;;;;;;;9.80;5.45;;;13.80;99.90;;;-146.41;100.00;57768.22;5020461;28;20053;-70
2022/05/27 01:49:05;;;;;;;10.50;5.53;;;13.70;99.90;;;-146.41;100.00;57768.22;5020741;28;20072;-69
2022/05/27 01:51:40;;;;;;;11.87;5.97;;;13.70;99.90;;;-146.41;100.00;57768.22;5034347;28;20728;-68
2022/05/27 01:54:16;;;;;;;12.10;6.43;;;13.60;99.90;;;-146.41;100.00;57768.22;5021728;28;20162;-69
2022/05/27 01:56:59;;;;;;;13.50;8.10;;;13.60;99.90;;;-146.41;100.00;57768.22;5019888;28;20511;-69
2022/05/27 01:59:43;;;;;;;13.35;7.32;;;13.50;99.90;;;-146.41;100.00;57768.22;5019391;28;20068;-68
2022/05/27 02:02:17;;;;;;;8.93;6.72;;;13.50;99.90;;;-146.41;100.00;57768.22;5016410;28;20465;-70
2022/05/27 02:05:17;;;;;;;12.18;7.78;;;13.50;99.90;;;-146.41;100.00;57768.22;5020775;28;20037;-69
2022/05/27 02:08:00;;;;;;;10.45;7.57;;;13.50;99.90;;;-146.41;100.00;57768.22;5014479;28;20140;-68
2022/05/27 02:10:42;;;;;;;12.52;8.35;;;13.40;99.90;;;-146.41;100.00;57768.22;5023157;28;20069;-68
2022/05/27 02:13:42;;;;;;;11.27;7.38;;;13.40;99.90;;;-146.41;100.00;57768.22;5018001;28;20129;-69
2022/05/27 02:16:15;;;;;;;9.13;7.38;;;13.40;99.90;;;-146.41;100.00;57768.22;5018782;28;20130;-68
2022/05/27 02:18:52;;;;;;;11.32;8.27;;;13.30;99.90;;;-146.41;100.00;57768.22;5020565;28;20057;-70
2022/05/27 02:22:05;;;;;;;14.77;7.90;;;13.20;99.90;;;-146.41;100.00;57768.22;5017144;28;20128;-69
2022/05/27 02:25:00;;;;;;;17.60;9.00;;;13.30;99.90;;;-146.41;100.00;57768.22;5018557;28;20192;-68
2022/05/27 02:27:40;;;;;;;10.52;7.95;;;13.30;99.90;;;-146.41;100.00;57768.22;5019592;28;20061;-68
2022/05/27 02:30:12;;;;;;;11.20;7.65;;;13.20;99.90;;;-146.41;100.00;57768.22;5022409;28;20148;-68
2022/05/27 02:32:46;;;;;;;12.88;7.60;;;13.20;99.90;;;-146.41;100.00;57768.22;5011832;28;20054;-68
2022/05/27 02:35:25;;;;;;;11.57;8.25;;;13.20;99.90;;;-146.41;100.00;57768.22;5020537;28;20072;-68
2022/05/27 02:37:56;;;;;;;11.70;8.23;;;13.20;99.90;;;-146.41;100.00;57768.22;5016369;28;20053;-69
2022/05/27 02:40:31;;;;;;;14.13;8.77;;;13.20;99.90;;;-146.41;100.00;57768.22;5023996;28;20072;-69
2022/05/27 02:43:04;;;;;;;11.23;7.47;;;13.30;99.90;;;-146.41;100.00;57768.22;5015887;28;20081;-68
2022/05/27 02:45:40;;;;;;;;;;;13.30;99.90;;;-146.41;100.00;57768.22;5017527;28;20053;-68
2022/05/27 02:48:45;;;;;;;13.07;8.63;;;13.40;99.90;;;-146.41;100.00;57768.22;5017494;28;19932;-69
2022/05/27 02:51:25;;;;;;;11.85;8.52;;;13.40;99.90;;;-146.41;100.00;57768.22;5020016;28;20087;-68
2022/05/27 02:54:23;;;;;;;11.25;8.93;;;13.40;99.90;;;-146.41;100.00;57768.22;5022580;28;20045;-68
2022/05/27 02:57:12;;;;;;;12.20;8.65;;;13.40;99.90;;;-146.41;100.00;57768.22;5017700;28;20105;-69
2022/05/27 02:59:41;;;;;;;14.30;8.82;;;13.40;99.90;;;-146.41;100.00;57768.22;5016613;28;20049;-68
2022/05/27 03:02:13;;;;;;;11.70;7.90;;;13.40;99.90;;;-146.41;100.00;57768.22;5022666;28;20085;-68
2022/05/27 03:04:49;;;;;;;13.40;8.48;;;13.40;99.90;;;-146.41;100.00;57768.22;5022138;28;20046;-68
2022/05/27 03:08:02;;;;;;;13.20;8.75;;;13.50;99.90;;;-146.41;100.00;57768.22;5027561;28;20045;-68
2022/05/27 03:10:39;;;;;;;12.32;8.50;;;13.50;99.90;;;-146.41;100.00;57768.22;5021779;28;20201;-68
2022/05/27 03:13:21;;;;;;;13.70;9.95;;;13.50;99.90;;;-146.41;100.00;57768.22;5022001;28;20226;-69
2022/05/27 03:16:10;;;;;;;12.73;8.80;;;13.50;99.90;;;-146.41;100.00;57768.22;5024847;28;20129;-69
2022/05/27 03:19:15;;;;;;;13.43;8.40;;;13.50;99.90;;;-146.41;100.00;57768.22;5022335;28;20230;-68
2022/05/27 03:21:48;;;;;;;13.57;9.27;;;13.50;99.90;;;-146.41;100.00;57768.22;5023332;28;20089;-69
2022/05/27 03:24:39;;;;;;;;;;;13.60;99.90;;;-146.41;100.00;57768.22;5021553;28;20047;-69
2022/05/27 03:27:43;;;;;;;10.93;8.70;;;13.60;99.90;;;-146.41;100.00;57768.22;5022503;28;19935;-69
2022/05/27 03:30:40;;;;;;;13.13;8.52;;;13.60;99.90;;;-146.41;100.00;57768.22;5025405;28;20136;-69
2022/05/27 03:33:30;;;;;;;12.32;8.85;;;13.50;99.90;;;-146.41;100.00;57768.22;5022214;28;20159;-69
2022/05/27 03:36:11;;;;;;;13.02;8.57;;;13.60;99.90;;;-146.41;100.00;57768.22;5003576;28;20416;-69
2022/05/27 03:39:03;;;;;;;13.70;9.35;;;13.60;99.90;;;-146.41;100.00;57768.22;5024756;28;20050;-69
2022/05/27 03:41:40;;;;;;;12.25;8.55;;;13.60;99.90;;;-146.41;100.00;57768.22;5021062;28;20140;-67
2022/05/27 03:44:07;;;;;;;11.90;7.78;;;13.60;99.90;;;-146.41;100.00;57768.22;5019648;28;20137;-67
2022/05/27 03:46:38;;;;;;;11.27;7.65;;;13.60;99.90;;;-146.41;100.00;57768.22;5019817;28;20045;-69
2022/05/27 03:49:06;;;;;;;14.82;9.23;;;13.60;99.90;;;-146.41;100.00;57768.22;5024375;28;20176;-69
2022/05/27 03:52:04;;;;;;;13.63;9.32;;;13.60;99.90;;;-146.41;100.00;57768.22;5022661;28;20093;-69
2022/05/27 03:54:31;;;;;;;11.65;8.35;;;13.60;99.90;;;-146.41;100.00;57768.22;5022373;28;20080;-67
2022/05/27 03:56:58;;;;;;;12.80;8.48;;;13.70;99.90;;;-146.41;100.00;57768.22;5018999;28;20049;-67
2022/05/27 03:59:26;;;;;;;14.52;9.90;;;13.70;99.90;;;-146.41;100.00;57768.22;5021539;28;20042;-67
2022/05/27 04:01:55;;;;;;;15.57;9.10;;;13.70;99.90;;;-146.41;100.00;57768.22;5023519;28;20414;-67
2022/05/27 04:04:28;;;;;;;12.43;7.72;;;13.70;99.90;;;-146.41;100.00;57768.22;5020977;28;20080;-68
2022/05/27 04:06:56;;;;;;;13.10;8.85;;;13.70;99.90;;;-146.41;100.00;57768.22;5019227;28;20065;-68
2022/05/27 04:09:25;;;;;;;15.57;9.27;;;13.70;99.90;;;-146.41;100.00;57768.22;5022731;28;20085;-68
2022/05/27 04:11:53;;;;;;;14.60;8.85;;;13.70;99.90;;;-146.41;100.00;57768.22;5012460;28;20140;-68
2022/05/27 04:14:22;;;;;;;10.20;7.68;;;13.70;99.90;;;-146.41;100.00;57768.22;5022576;28;20411;-68
2022/05/27 04:16:49;;;;;;;11.55;8.30;;;13.70;99.90;;;-146.41;100.00;57768.22;5021144;28;20067;-68
2022/05/27 04:19:17;;;;;;;13.90;8.35;;;13.70;99.90;;;-146.41;100.00;57768.22;5019837;28;20110;-68
2022/05/27 04:21:45;;;;;;;14.70;8.93;;;13.70;99.90;;;-146.41;100.00;57768.22;5024604;28;20139;-68
2022/05/27 04:24:12;;;;;;;11.35;7.88;;;13.80;99.90;;;-146.41;100.00;57768.22;5023082;28;20137;-67
2022/05/27 04:26:39;;;;;;;10.30;8.07;;;13.70;99.90;;;-146.41;100.00;57768.22;5020148;28;20045;-68
2022/05/27 04:29:06;;;;;;;12.65;7.65;;;13.80;99.90;;;-146.41;100.00;57768.22;5020248;28;20140;-67
2022/05/27 04:31:33;;;;;;;10.30;8.48;;;13.70;99.90;;;-146.41;100.00;57768.22;5022803;28;20045;-68
2022/05/27 04:34:00;;;;;;;10.73;7.28;;;13.70;99.90;;;-146.41;100.00;57768.22;5022021;28;20054;-67
2022/05/27 04:36:27;;;;;;;10.65;7.05;;;13.70;99.90;;;-146.41;100.00;57768.22;5022721;28;20137;-67
2022/05/27 04:38:54;;;;;;;12.10;8.05;;;13.80;99.90;;;-146.41;100.00;57768.22;5020946;28;20224;-68
2022/05/27 04:41:24;;;;;;;10.05;7.18;;;13.80;99.90;;;-146.41;100.00;57768.22;5021478;28;20144;-68
2022/05/27 04:43:51;;;;;;;11.55;6.90;;;13.80;99.90;;;-146.41;100.00;57768.22;5024126;28;20136;-67
2022/05/27 04:46:18;;;;;;;11.35;7.28;;;13.90;99.90;;;-146.41;100.00;57768.22;5020652;28;20132;-68
2022/05/27 04:48:45;;;;;;;12.50;7.22;;;13.90;99.90;;;-146.41;100.00;57768.22;5024780;28;20053;-67
2022/05/27 04:51:12;;;;;;;12.40;7.10;;;13.90;99.90;;;-146.41;100.00;57768.22;5020800;28;20591;-67
2022/05/27 04:53:39;;;;;;;9.77;7.25;;;13.90;99.90;;;-146.41;100.00;57768.22;5024955;28;20133;-67
2022/05/27 04:56:09;;;;;;;10.15;6.97;;;13.90;99.90;;;-146.41;100.00;57768.22;5019828;28;20038;-67
2022/05/27 04:58:36;;;;;;;15.65;7.70;;;13.90;99.90;;;-146.41;100.00;57768.22;5020758;28;20073;-68
2022/05/27 05:01:02;;;;;;;10.85;6.72;;;13.90;99.90;;;-146.41;100.00;57768.22;5021464;28;20472;-67
2022/05/27 05:03:30;;;;;;;13.13;8.02;;;14.00;99.90;;;-146.41;100.00;57768.22;5019970;28;20133;-67
2022/05/27 05:05:57;;;;;;;11.40;6.97;;;13.90;99.90;;;-146.41;100.00;57768.22;5019489;28;20080;-67
2022/05/27 05:08:33;;;;;;;13.77;7.70;;;13.90;99.90;;;-146.41;100.00;57768.22;5019286;28;20128;-67
2022/05/27 05:11:03;;;;;;;8.70;6.40;;;13.90;99.90;;;-146.41;100.00;57768.22;5018522;28;20489;-68
2022/05/27 05:13:34;;;;;;;14.10;7.30;;;13.90;99.90;;;-146.41;100.00;57768.22;5021123;28;20092;-67
2022/05/27 05:16:03;;;;;;;9.90;6.82;;;13.90;99.90;;;-146.41;100.00;57768.22;5023953;28;20046;-67
2022/05/27 05:18:30;;;;;;;11.05;7.10;;;13.90;99.90;;;-146.41;100.00;57768.22;5025680;28;20423;-69
2022/05/27 05:20:57;;;;;;;10.88;6.90;;;13.90;99.90;;;-146.41;100.00;57768.22;5018865;28;20081;-69
2022/05/27 05:23:24;;;;;;;9.60;6.00;;;14.00;99.90;;;-146.41;100.00;57768.22;5018814;28;20097;-69
2022/05/27 05:25:51;;;;;;;11.65;6.22;;;14.10;99.90;;;-146.41;100.00;57768.22;5018213;28;20112;-69
2022/05/27 05:28:18;;;;;;;11.32;6.35;;;14.20;99.90;;;-146.41;100.00;57768.22;5019736;28;20574;-68
2022/05/27 05:30:45;;;;;;;14.77;6.28;;;14.40;99.90;;;-146.41;100.00;57768.22;5017891;28;20132;-69
2022/05/27 05:33:12;;;;;;;10.00;6.40;;;14.40;99.90;;;-146.41;100.00;57768.22;5018959;28;20415;-69
2022/05/27 05:35:39;;;;;;;9.23;5.93;;;14.50;99.90;;;-146.41;100.00;57768.22;5018528;28;20148;-69
2022/05/27 05:38:07;;;;;;;8.65;5.55;;;14.50;99.90;;;-146.41;100.00;57768.22;5015547;28;20080;-69
2022/05/27 05:40:34;;;;;;;9.00;5.60;;;14.50;99.90;;;-146.41;100.00;57768.22;5018368;28;20045;-69
2022/05/27 05:43:01;;;;;;;9.95;4.85;;;14.70;99.90;;;-146.41;100.00;57768.22;5015268;28;20129;-69
2022/05/27 05:45:29;;;;;;;8.60;5.80;;;14.80;99.90;;;-146.41;100.00;57768.22;5020909;28;20054;-70
2022/05/27 05:47:56;;;;;;;7.07;5.03;;;15.00;99.90;;;-146.41;100.00;57768.22;5015845;28;20639;-69
2022/05/27 05:50:24;;;;;;;8.25;4.80;;;15.00;99.90;;;-146.41;100.00;57768.22;5021106;28;20133;-68
2022/05/27 05:52:52;;;;;;;8.95;4.85;;;15.10;99.90;;;-146.41;100.00;57768.22;5020021;28;20245;-69
2022/05/27 05:55:20;;;;;;;6.80;4.88;;;15.10;99.90;;;-146.41;100.00;57768.22;5020105;28;20499;-69
2022/05/27 05:57:49;;;;;;;9.25;5.57;;;15.10;99.90;;;-146.41;100.00;57768.22;5018130;28;20470;-68
2022/05/27 06:00:24;;;;;;;11.32;5.10;;;15.00;99.90;;;-146.41;100.00;57768.22;5016953;28;20212;-68
2022/05/27 06:02:53;;;;;;;9.05;5.68;;;14.80;99.90;;;-146.41;100.00;57768.22;5016191;28;20674;-68
2022/05/27 06:05:21;;;;;;;8.60;5.78;;;14.80;99.90;;;-146.41;100.00;57768.22;5018745;28;20053;-68
2022/05/27 06:07:49;;;;;;;9.63;5.55;;;14.80;99.90;;;-146.41;100.00;57768.22;5019223;28;20751;-68
2022/05/27 06:10:17;;;;;;;9.75;5.97;;;14.80;99.90;;;-146.41;100.00;57768.22;5015366;28;20053;-68
2022/05/27 06:12:44;;;;;;;9.50;5.65;;;14.80;99.90;;;-146.41;100.00;57768.22;5017245;28;20053;-68
2022/05/27 06:15:20;;;;;;;7.88;5.57;;;14.80;99.90;;;-146.41;100.00;57768.22;5019035;28;20061;-68
2022/05/27 06:17:48;;;;;;;7.40;5.68;;;14.70;99.90;;;-146.41;100.00;57768.22;5020105;28;20104;-68
2022/05/27 06:20:15;;;;;;;9.52;5.65;;;14.60;99.90;;;-146.41;100.00;57768.22;5020066;28;20097;-69
2022/05/27 06:22:42;;;;;;;9.63;6.28;;;14.60;99.90;;;-146.41;100.00;57768.22;5021462;28;20400;-68
2022/05/27 06:25:11;;;;;;;11.43;6.13;;;14.60;99.90;;;-146.41;100.00;57768.22;5017856;28;20061;-69
2022/05/27 06:27:38;;;;;;;8.35;5.80;;;14.70;99.90;;;-146.41;100.00;57768.22;5018026;28;20048;-69
2022/05/27 06:35:38;;;;;;;10.60;5.60;;;14.70;99.90;;;-146.41;100.00;57768.22;5021610;28;20146;-68
2022/05/27 06:38:05;;;;;;;9.27;5.10;;;14.70;99.90;;;-146.41;100.00;57768.22;5031779;28;20089;-70
2022/05/27 06:40:32;;;;;;;8.90;5.60;;;14.80;99.90;;;-146.41;100.00;57768.22;5038664;28;20500;-69
2022/05/27 06:42:59;;;;;;;9.00;5.93;;;14.80;99.90;;;-146.41;100.00;57768.22;5023268;28;20131;-68
2022/05/27 06:45:26;;;;;;;8.38;5.53;;;14.80;99.90;;;-146.41;100.00;57768.22;5025123;28;20136;-68
2022/05/27 06:47:53;;;;;;;7.05;5.45;;;14.80;99.90;;;-146.41;100.00;57768.22;5023702;28;20139;-68
2022/05/27 06:50:20;;;;;;;7.57;6.43;;;14.80;99.90;;;-146.41;100.00;57768.22;5023436;28;20136;-68
2022/05/27 06:52:54;;;;;;;10.63;6.65;;;14.70;99.90;;;-146.41;100.00;57768.22;5025475;28;20052;-69
2022/05/27 06:55:21;;;;;;;10.75;6.53;;;14.70;99.90;;;-146.41;100.00;57768.22;5021359;28;20492;-68
2022/05/27 06:57:48;;;;;;;9.77;6.70;;;14.70;99.90;;;-146.41;100.00;57768.22;5024304;28;20050;-68
2022/05/27 07:00:16;;;;;;;7.57;6.22;;;14.60;99.90;;;-146.41;100.00;57768.22;5021784;28;20056;-68
2022/05/27 07:02:43;;;;;;;9.48;6.68;;;14.60;99.90;;;-146.41;100.00;57768.22;5017207;28;20580;-68
2022/05/27 07:05:10;;;;;;;12.45;6.40;;;14.50;99.90;;;-146.41;100.00;57768.22;5025489;28;20078;-69
2022/05/27 07:07:38;;;;;;;9.93;7.05;;;14.50;99.90;;;-146.41;100.00;57768.22;5022926;28;20081;-68
2022/05/27 07:10:06;;;;;;;9.75;6.40;;;14.50;99.90;;;-146.41;100.00;57768.22;5008421;28;20056;-69
2022/05/27 07:12:33;;;;;;;12.02;6.65;;;14.40;99.90;;;-146.41;100.00;57768.22;5022000;28;20129;-69
2022/05/27 07:15:00;;;;;;;10.05;6.55;;;14.40;99.90;;;-146.41;100.00;57768.22;5021985;28;20136;-69
2022/05/27 07:17:28;;;;;;;11.77;7.68;;;14.20;99.90;;;-146.41;100.00;57768.22;5022120;28;20459;-68
2022/05/27 07:19:55;;;;;;;12.05;8.88;;;14.10;99.90;;;-146.41;100.00;57768.22;5024795;28;20053;-68
2022/05/27 07:22:22;;;;;;;13.57;9.95;;;13.90;99.90;;;-146.41;100.00;57768.22;5021458;28;20077;-69
2022/05/27 07:24:49;;;;;;;11.43;9.45;;;13.80;99.90;;;-146.41;100.00;57768.22;5022673;28;20431;-69
2022/05/27 07:27:16;;;;;;;12.25;9.15;;;13.70;99.90;;;-146.41;100.00;57768.22;5023846;28;20115;-68
2022/05/27 07:29:43;;;;;;;13.38;10.95;;;13.70;99.90;;;-146.41;100.00;57768.22;5021083;28;20128;-68
2022/05/27 07:32:10;;;;;;;12.60;11.25;;;13.70;99.90;;;-146.41;100.00;57768.22;5018412;28;20132;-68
2022/05/27 07:34:38;;;;;;;12.07;10.05;;;13.70;99.90;;;-146.41;100.00;57768.22;5020090;28;20525;-68
2022/05/27 07:37:06;;;;;;;12.07;9.57;;;13.80;99.90;;;-146.41;100.00;57768.22;5018104;28;20091;-69
2022/05/27 07:39:33;;;;;;;13.05;11.60;;;13.80;99.90;;;-146.41;100.00;57768.22;5025573;28;20145;-68
2022/05/27 07:42:01;;;;;;;12.60;8.88;;;13.90;99.90;;;-146.41;100.00;57768.22;5018878;28;20052;-69
2022/05/27 07:44:28;;;;;;;9.90;8.30;;;14.00;99.90;;;-146.41;100.00;57768.22;5020111;28;20136;-68
2022/05/27 07:46:54;;;;;;;9.88;6.65;;;14.20;99.90;;;-146.41;100.00;57768.22;5021307;28;20150;-69
2022/05/27 07:49:22;;;;;;;6.28;5.28;;;14.30;99.90;;;-146.41;100.00;57768.22;5021981;28;20056;-68
2022/05/27 07:52:00;;;;;;;8.00;4.80;;;14.40;99.90;;;-146.41;100.00;57768.22;5019372;28;20115;-68
2022/05/27 07:54:27;;;;;;;9.70;5.10;;;14.40;99.90;;;-146.41;100.00;57768.22;5024743;28;20133;-68
2022/05/27 07:56:54;;;;;;;6.60;4.82;;;14.50;99.90;;;-146.41;100.00;57768.22;5017495;28;20456;-69
2022/05/27 07:59:21;;;;;;;7.90;5.03;;;14.60;99.90;;;-146.41;100.00;57768.22;5019232;28;20038;-68
2022/05/27 08:01:48;;;;;;;9.07;4.20;;;14.60;99.90;;;-146.41;100.00;57768.22;5020780;28;20140;-68
2022/05/27 08:04:15;;;;;;;7.00;4.32;;;14.50;99.90;;;-146.41;100.00;57768.22;5019358;28;20132;-68
2022/05/27 08:06:43;;;;;;;5.32;3.38;;;14.60;99.90;;;-146.41;100.00;57768.22;5016802;28;20076;-69
2022/05/27 08:09:13;;;;;;;5.15;3.67;;;14.70;99.90;;;-146.41;100.00;57768.22;5022849;28;20625;-68
2022/05/27 08:11:40;;;;;;;5.97;3.78;;;15.00;99.90;;;-146.41;100.00;57768.22;5017862;28;20178;-69
2022/05/27 08:14:09;;;;;;;6.55;3.60;;;15.10;99.90;;;-146.41;100.00;57768.22;5022451;28;20083;-69
2022/05/27 08:16:37;;;;;;;9.45;3.60;;;15.30;99.90;;;-146.41;100.00;57768.22;5017587;28;20075;-69
2022/05/27 08:19:04;;;;;;;6.50;3.70;;;15.40;99.90;;;-146.41;100.00;57768.22;5026646;28;20041;-68
2022/05/27 08:21:36;;;;;;;6.75;2.90;;;15.40;99.90;;;-146.41;100.00;57768.22;5020292;28;20124;-69
2022/05/27 08:24:04;;;;;;;4.63;2.45;;;15.50;99.90;;;-146.41;100.00;57768.22;5017701;28;20046;-68
2022/05/27 08:26:31;;;;;;;3.90;2.40;;;15.40;99.90;;;-146.41;100.00;57768.22;5019930;28;20233;-68
2022/05/27 08:28:58;;;;;;;5.78;2.22;;;15.50;99.90;;;-146.41;100.00;57768.22;5019862;28;20148;-68
2022/05/27 08:31:25;;;;;;;5.97;2.03;;;15.50;99.90;;;-146.41;100.00;57768.22;5019140;28;20205;-68
2022/05/27 08:39:23;;;;;;;4.80;2.92;;;15.50;99.90;;;-146.41;100.00;57768.22;5019516;28;20077;-69
2022/05/27 08:42:19;;;;;;;3.70;2.15;;;15.40;99.90;;;-146.41;100.00;57768.22;5016066;28;20200;-68
2022/05/27 08:45:24;;;;;;;6.30;2.10;;;15.40;99.90;;;-146.41;100.00;57768.22;5018319;28;20042;-68
2022/05/27 08:47:59;;;;;;;3.83;2.58;;;15.50;99.90;;;-146.41;100.00;57768.22;5017505;28;20761;-68
2022/05/27 08:50:44;;;;;;;5.20;2.10;;;15.60;99.90;;;-146.41;100.00;57768.22;5018453;28;20104;-69
2022/05/27 08:53:29;;;;;;;4.70;1.77;;;15.60;99.90;;;-146.41;100.00;57768.22;5012174;28;20050;-69
2022/05/27 08:59:27;;;;;;;4.18;1.40;;;15.50;99.90;;;-146.41;100.00;57768.22;5018979;28;20052;-68
2022/05/27 09:02:02;;;;;;;2.83;1.42;;;15.60;99.90;;;-146.41;100.00;57768.22;5016469;28;20469;-68
2022/05/27 09:04:53;;;;;;;4.63;1.60;;;15.50;99.90;;;-146.41;100.00;57768.22;5019462;28;20057;-68
2022/05/27 09:07:37;;;;;;;3.88;1.30;;;15.60;99.90;;;-146.41;100.00;57768.22;5017188;28;20562;-68
2022/05/27 09:10:43;;;;;;;3.72;1.20;;;15.60;99.90;;;-146.41;100.00;57768.22;5015647;28;20575;-69
2022/05/27 09:13:34;;;;;;;3.60;1.02;;;15.60;99.90;;;-146.41;100.00;57768.22;5000979;28;20072;-69
2022/05/27 09:16:27;;;;;;;4.85;1.20;;;15.80;99.90;;;-146.41;100.00;57768.22;5011776;28;20114;-69
2022/05/27 09:19:46;;;;;;;3.47;1.20;;;16.10;99.90;;;-146.41;100.00;57768.22;5017196;28;20144;-69
2022/05/27 09:22:46;;;;;;;2.90;1.30;;;16.00;99.90;;;-146.41;100.00;57768.22;5007990;28;20627;-68
2022/05/27 09:25:48;;;;;;;3.42;1.20;;;16.10;99.90;;;-146.41;100.00;57768.22;5011931;28;20071;-68
2022/05/27 09:28:39;;;;;;;2.65;1.20;;;16.20;99.90;;;-146.41;100.00;57768.22;5017860;28;20050;-68
2022/05/27 09:31:09;;;;;;;3.13;1.20;;;16.20;99.90;;;-146.41;100.00;57768.22;5014818;28;20053;-69
2022/05/27 09:33:37;;;;;;;4.55;1.20;;;16.00;99.90;;;-146.41;100.00;57768.22;5012598;28;20049;-68
2022/05/27 09:36:18;;;;;;;2.60;1.20;;;15.90;99.90;;;-146.41;100.00;57768.22;5012965;28;20045;-69
2022/05/27 09:39:00;;;;;;;5.18;1.45;;;15.90;99.90;;;-146.41;100.00;57768.22;5017301;28;20460;-68
2022/05/27 09:41:43;;;;;;;4.10;1.85;;;16.00;99.90;;;-146.41;100.00;57768.22;5013075;28;20124;-68
2022/05/27 09:44:42;;;;;;;3.30;1.10;;;16.10;99.90;;;-146.41;100.00;57768.22;5016551;28;20065;-70
2022/05/27 09:47:09;;;;;;;3.85;1.42;;;16.10;99.90;;;-146.41;100.00;57768.22;5014433;28;20073;-69
2022/05/27 09:49:36;;;;;;;3.50;1.10;;;16.10;99.90;;;-146.41;100.00;57768.22;5013574;28;20053;-68
2022/05/27 09:52:05;;;;;;;5.15;1.38;;;16.10;99.90;;;-146.41;100.00;57768.22;5013020;28;20050;-68
2022/05/27 09:54:50;;;;;;;4.38;1.42;;;16.10;99.90;;;-146.41;100.00;57768.22;5019587;28;20157;-68
2022/05/27 09:57:26;;;;;;;3.03;1.05;;;16.10;99.90;;;-146.41;100.00;57768.22;5014834;28;20077;-68
2022/05/27 10:00:00;;;;;;;3.47;1.60;;;16.00;99.90;;;-146.41;100.00;57768.22;5020036;28;20050;-68
2022/05/27 10:02:37;;;;;;;2.65;2.13;;;16.10;99.90;;;-146.41;100.00;57768.22;5014407;28;20140;-68
2022/05/27 10:05:05;;;;;;;4.50;2.30;;;15.90;99.90;;;-146.41;100.00;57768.22;5018606;28;20045;-68
2022/05/27 10:07:38;;;;;;;6.88;2.15;;;15.80;99.90;;;-146.41;100.00;57768.22;5019051;28;20045;-68
2022/05/27 10:10:19;;;;;;;4.28;1.85;;;15.80;99.90;;;-146.41;100.00;57768.22;5022042;28;20108;-68
2022/05/27 10:12:46;;;;;;;5.07;1.55;;;16.00;99.90;;;-146.41;100.00;57768.22;5018841;28;20164;-68
2022/05/27 10:15:30;;;;;;;4.38;1.60;;;16.20;99.90;;;-146.41;100.00;57768.22;5018487;28;20193;-67
2022/05/27 10:18:13;;;;;;;4.70;1.73;;;16.70;99.90;;;-146.41;100.00;57768.22;5020762;28;20065;-67
2022/05/27 10:20:41;;;;;;;3.25;1.20;;;16.90;99.90;;;-146.41;100.00;57768.22;5019221;28;20503;-68
2022/05/27 10:23:12;;;;;;;4.93;1.08;;;17.10;99.90;;;-146.41;100.00;57768.22;5019123;28;20080;-68
2022/05/27 10:25:42;;;;;;;5.10;1.20;;;17.10;99.90;;;-146.41;100.00;57768.22;5016071;28;20084;-68
2022/05/27 10:28:27;;;;;;;4.53;2.15;;;17.20;99.90;;;-146.41;100.00;57768.22;5019376;28;20045;-69
2022/05/27 10:31:00;;;;;;;3.33;2.00;;;16.90;99.90;;;-146.41;100.00;57768.22;5019759;28;20191;-68
2022/05/27 10:33:44;;;;;;;4.53;1.90;;;16.60;99.90;;;-146.41;100.00;57768.22;5013751;28;20087;-69
2022/05/27 10:36:52;;;;;;;5.55;1.98;;;16.40;99.90;;;-146.41;100.00;57768.22;5019807;28;20046;-68
2022/05/27 10:39:43;;;;;;;4.57;1.80;;;16.30;99.90;;;-146.41;100.00;57768.22;5019165;28;20921;-67
2022/05/27 10:42:47;;;;;;;5.55;1.60;;;16.10;99.90;;;-146.41;100.00;57768.22;5021024;28;20161;-68
2022/05/27 10:45:42;;;;;;;4.07;1.98;;;16.10;99.90;;;-146.41;100.00;57768.22;5022750;28;20120;-68
2022/05/27 10:49:05;;;;;;;2.60;1.42;;;16.20;99.90;;;-146.41;100.00;57768.22;5018450;28;20061;-68